createdAt,value
2019-04-29T00:00:47.494Z,76.66
2019-04-29T00:05:51.932Z,77.55
2019-04-29T00:10:56.288Z,77.76
2019-04-29T00:16:18.801Z,77.67
2019-04-29T00:21:24.798Z,77.47
2019-04-29T00:26:30.216Z,76.98
2019-04-29T00:31:34.530Z,77.04
2019-04-29T00:36:40.547Z,77.04
2019-04-29T00:42:02.844Z,77.98
2019-04-29T00:47:08.939Z,76.98
2019-04-29T00:52:13.339Z,77.27
2019-04-29T00:57:17.675Z,77.81
2019-04-29T01:02:22.431Z,76.74
2019-04-29T01:07:26.843Z,77.13
2019-04-29T01:12:32.191Z,77.23
2019-04-29T01:17:36.570Z,77.48
2019-04-29T01:22:42.731Z,77.11
2019-04-29T01:27:48.747Z,77.37
2019-04-29T01:32:53.112Z,77.49
2019-04-29T01:37:59.134Z,77.60
2019-04-29T01:43:03.680Z,77.15
2019-04-29T01:48:08.110Z,77.63
2019-04-29T01:53:13.101Z,76.88
2019-04-29T01:58:17.465Z,76.86
2019-04-29T02:03:21.839Z,77.33
2019-04-29T02:08:26.210Z,76.63
2019-04-29T02:13:30.585Z,76.44
2019-04-29T02:18:34.993Z,76.35
2019-04-29T02:23:41.053Z,76.33
2019-04-29T02:28:45.432Z,76.65
2019-04-29T02:33:49.852Z,75.74
2019-04-29T02:39:01.801Z,77.49
2019-04-29T02:44:09.407Z,76.56
2019-04-29T02:49:13.852Z,77.10
2019-04-29T02:54:18.345Z,77.88
2019-04-29T02:59:27.303Z,76.70
2019-04-29T03:04:33.312Z,77.15
2019-04-29T03:09:46.888Z,77.03
2019-04-29T03:14:51.237Z,76.51
2019-04-29T03:20:13.348Z,76.28
2019-04-29T03:25:17.744Z,77.03
2019-04-29T03:30:22.196Z,77.15
2019-04-29T03:35:26.599Z,77.11
2019-04-29T03:40:30.936Z,76.29
2019-04-29T03:45:35.337Z,76.81
2019-04-29T03:50:39.777Z,75.71
2019-04-29T03:55:44.166Z,75.25
2019-04-29T04:00:50.179Z,75.02
2019-04-29T04:06:01.706Z,75.16
2019-04-29T04:11:06.065Z,73.92
2019-04-29T04:16:12.070Z,74.69
2019-04-29T04:21:17.040Z,74.91
2019-04-29T04:26:21.380Z,75.84
2019-04-29T04:31:25.748Z,74.20
2019-04-29T04:36:30.208Z,74.94
2019-04-29T04:41:34.584Z,74.44
2019-04-29T04:46:39.027Z,72.51
2019-04-29T04:51:43.445Z,73.20
2019-04-29T04:56:47.824Z,72.90
2019-04-29T05:01:52.162Z,75.16
2019-04-29T05:06:56.558Z,75.05
2019-04-29T05:12:00.958Z,75.16
2019-04-29T05:17:05.353Z,77.32
2019-04-29T05:22:09.768Z,76.42
2019-04-29T05:27:15.764Z,76.86
2019-04-29T05:32:20.133Z,78.08
2019-04-29T05:37:26.136Z,78.93
2019-04-29T05:42:30.511Z,79.86
2019-04-29T05:47:36.513Z,80.55
2019-04-29T05:52:59.050Z,81.06
2019-04-29T05:58:12.284Z,82.30
2019-04-29T06:03:16.637Z,83.89
2019-04-29T06:08:21.137Z,83.91
2019-04-29T06:13:26.635Z,83.06
2019-04-29T06:18:30.946Z,84.25
2019-04-29T06:23:36.465Z,83.91
2019-04-29T06:28:40.855Z,83.20
2019-04-29T06:33:45.211Z,85.43
2019-04-29T06:38:49.579Z,87.19
2019-04-29T06:43:56.171Z,85.82
2019-04-29T06:49:10.194Z,86.12
2019-04-29T06:54:06.878Z,86.52
2019-04-29T06:59:12.106Z,86.29
2019-04-29T07:04:17.333Z,88.00
2019-04-29T07:09:22.452Z,87.09
2019-04-29T07:14:28.357Z,86.71
2019-04-29T07:19:33.505Z,88.22
2019-04-29T07:24:37.883Z,86.95
2019-04-29T07:29:42.297Z,87.88
2019-04-29T07:34:46.633Z,88.44
2019-04-29T07:39:51.027Z,87.43
2019-04-29T07:45:12.239Z,88.52
2019-04-29T07:50:17.770Z,88.95
2019-04-29T07:55:25.930Z,87.84
2019-04-29T08:00:35.212Z,86.77
2019-04-29T08:05:39.676Z,89.72
2019-04-29T08:10:54.059Z,88.73
2019-04-29T08:15:50.342Z,89.44
2019-04-29T08:20:54.822Z,89.57
2019-04-29T08:26:02.411Z,89.97
2019-04-29T08:31:05.406Z,90.94
2019-04-29T08:36:09.883Z,90.81
2019-04-29T08:41:14.305Z,88.69
2019-04-29T08:46:20.398Z,87.61
2019-04-29T08:51:25.883Z,89.33
2019-04-29T08:56:30.302Z,89.99
2019-04-29T09:01:35.812Z,90.20
2019-04-29T09:06:41.269Z,90.93
2019-04-29T09:11:47.873Z,88.66
2019-04-29T09:16:51.788Z,89.29
2019-04-29T09:22:00.448Z,90.99
2019-04-29T09:27:11.153Z,90.92
2019-04-29T09:32:15.996Z,92.32
2019-04-29T09:37:22.808Z,91.79
2019-04-29T09:42:45.536Z,91.15
2019-04-29T09:47:49.297Z,92.65
2019-04-29T09:52:53.676Z,92.69
2019-04-29T09:57:58.113Z,92.15
2019-04-29T10:03:04.106Z,91.62
2019-04-29T10:08:08.529Z,90.81
2019-04-29T10:13:12.880Z,92.10
2019-04-29T10:18:25.190Z,92.80
2019-04-29T10:23:27.854Z,92.20
2019-04-29T10:28:33.775Z,92.83
2019-04-29T10:33:38.114Z,92.10
2019-04-29T10:38:44.953Z,91.48
2019-04-29T10:44:00.471Z,90.32
2019-04-29T10:49:06.664Z,90.79
2019-04-29T10:54:14.226Z,89.44
2019-04-29T10:59:18.197Z,90.46
2019-04-29T11:04:24.277Z,90.75
2019-04-29T11:09:32.662Z,92.61
2019-04-29T11:14:39.007Z,90.25
2019-04-29T11:19:43.656Z,90.55
2019-04-29T11:24:55.445Z,89.49
2019-04-29T11:30:02.890Z,91.40
2019-04-29T11:35:19.739Z,92.80
2019-04-29T11:40:26.118Z,90.78
2019-04-29T11:45:33.785Z,90.57
2019-04-29T11:50:50.177Z,90.25
2019-04-29T11:55:56.976Z,91.50
2019-04-29T12:01:04.059Z,90.89
2019-04-29T12:06:16.551Z,90.19
2019-04-29T12:11:20.719Z,91.02
2019-04-29T12:16:26.746Z,91.66
2019-04-29T12:21:35.720Z,92.89
2019-04-29T12:26:44.321Z,92.64
2019-04-29T12:31:59.913Z,91.90
2019-04-29T12:37:05.941Z,93.07
2019-04-29T12:42:20.731Z,93.66
2019-04-29T12:47:29.692Z,94.22
2019-04-29T12:52:34.035Z,93.76
2019-04-29T12:57:38.409Z,93.34
2019-04-29T13:02:44.438Z,93.62
2019-04-29T13:08:02.528Z,94.48
2019-04-29T13:13:07.137Z,93.99
2019-04-29T13:18:19.782Z,94.17
2019-04-29T13:23:33.679Z,93.33
2019-04-29T13:28:30.396Z,95.05
2019-04-29T13:33:32.156Z,93.65
2019-04-29T13:38:36.712Z,94.52
2019-04-29T13:43:41.066Z,94.73
2019-04-29T13:49:12.605Z,93.96
2019-04-29T13:54:09.653Z,94.65
2019-04-29T13:59:15.712Z,96.53
2019-04-29T14:04:24.797Z,96.06
2019-04-29T14:09:27.784Z,95.15
2019-04-29T14:14:32.162Z,94.54
2019-04-29T14:19:40.921Z,96.01
2019-04-29T14:24:42.618Z,94.72
2019-04-29T14:29:46.973Z,95.96
2019-04-29T14:34:55.938Z,96.12
2019-04-29T14:40:02.946Z,96.01
2019-04-29T14:45:24.779Z,96.08
2019-04-29T14:50:29.209Z,96.24
2019-04-29T14:55:33.559Z,95.89
2019-04-29T15:00:51.792Z,96.65
2019-04-29T15:05:56.231Z,98.54
2019-04-29T15:11:04.276Z,97.91
2019-04-29T15:16:23.370Z,97.54
2019-04-29T15:21:32.752Z,97.71
2019-04-29T15:26:36.559Z,96.37
2019-04-29T15:31:42.457Z,97.37
2019-04-29T15:36:47.083Z,97.19
2019-04-29T15:41:54.370Z,97.41
2019-04-29T15:46:57.634Z,98.14
2019-04-29T15:52:02.011Z,97.91
2019-04-29T15:57:09.137Z,97.93
2019-04-29T16:02:14.934Z,96.65
2019-04-29T16:07:30.973Z,96.83
2019-04-29T16:12:39.731Z,96.38
2019-04-29T16:17:44.439Z,96.95
2019-04-29T16:22:54.076Z,97.54
2019-04-29T16:27:55.961Z,96.10
2019-04-29T16:33:13.021Z,96.92
2019-04-29T16:38:11.436Z,97.10
2019-04-29T16:43:15.947Z,97.26
2019-04-29T16:48:20.388Z,97.16
2019-04-29T16:53:25.114Z,96.14
2019-04-29T16:58:29.671Z,97.02
2019-04-29T17:03:34.081Z,96.74
2019-04-29T17:08:50.615Z,96.95
2019-04-29T17:13:55.692Z,96.76
2019-04-29T17:19:00.239Z,96.68
2019-04-29T17:24:04.692Z,97.07
2019-04-29T17:29:38.851Z,96.81
2019-04-29T17:34:58.218Z,96.83
2019-04-29T17:39:42.804Z,96.85
2019-04-29T17:44:47.261Z,96.99
2019-04-29T17:50:06.729Z,96.92
2019-04-29T17:55:38.015Z,97.79
2019-04-29T18:00:59.538Z,97.51
2019-04-29T18:06:08.956Z,97.88
2019-04-29T18:11:15.032Z,97.28
2019-04-29T18:16:26.015Z,97.04
2019-04-29T18:21:29.235Z,96.52
2019-04-29T18:26:35.851Z,97.66
2019-04-29T18:31:40.487Z,96.93
2019-04-29T18:36:45.835Z,96.97
2019-04-29T18:41:50.318Z,97.56
2019-04-29T18:47:21.986Z,96.81
2019-04-29T18:52:25.987Z,97.17
2019-04-29T18:57:30.583Z,96.95
2019-04-29T19:02:32.474Z,97.53
2019-04-29T19:07:39.696Z,97.43
2019-04-29T19:12:44.583Z,97.70
2019-04-29T19:17:58.793Z,97.62
2019-04-29T19:23:05.395Z,98.54
2019-04-29T19:28:12.709Z,98.06
2019-04-29T19:33:10.257Z,98.05
2019-04-29T19:38:15.798Z,98.47
2019-04-29T19:43:20.274Z,97.97
2019-04-29T19:48:26.928Z,98.12
2019-04-29T19:53:30.885Z,98.42
2019-04-29T19:58:35.791Z,98.77
2019-04-29T20:03:50.231Z,98.37
2019-04-29T20:09:00.806Z,99.23
2019-04-29T20:14:05.745Z,98.49
2019-04-29T20:19:16.309Z,98.52
2019-04-29T20:24:17.885Z,98.19
2019-04-29T20:29:25.930Z,97.69
2019-04-29T20:34:28.415Z,97.54
2019-04-29T20:39:33.166Z,98.10
2019-04-29T20:44:44.769Z,97.75
2019-04-29T20:49:44.352Z,98.45
2019-04-29T20:54:57.465Z,98.39
2019-04-29T20:59:55.533Z,98.84
2019-04-29T21:05:00.689Z,99.90
2019-04-29T21:10:08.544Z,99.13
2019-04-29T21:15:27.989Z,98.91
2019-04-29T21:20:36.714Z,99.04
2019-04-29T21:25:41.791Z,99.01
2019-04-29T21:30:46.369Z,99.63
2019-04-29T21:35:55.554Z,99.36
2019-04-29T21:41:06.450Z,98.83
2019-04-29T21:46:10.834Z,99.72
2019-04-29T21:51:15.430Z,99.33
2019-04-29T21:56:21.341Z,98.45
2019-04-29T22:01:29.446Z,97.98
2019-04-29T22:06:32.126Z,98.00
2019-04-29T22:11:43.106Z,97.39
2019-04-29T22:16:47.596Z,96.60
2019-04-29T22:21:52.764Z,96.62
2019-04-29T22:27:04.233Z,96.46
2019-04-29T22:32:02.518Z,96.20
2019-04-29T22:37:07.028Z,95.30
2019-04-29T22:42:19.020Z,93.68
2019-04-29T22:47:24.943Z,92.81
2019-04-29T22:52:30.206Z,92.37
2019-04-29T22:57:35.489Z,91.34
2019-04-29T23:02:39.844Z,86.16
2019-04-29T23:07:45.568Z,86.07
2019-04-29T23:12:53.992Z,86.48
2019-04-29T23:17:56.756Z,84.48
2019-04-29T23:23:12.060Z,84.43
2019-04-29T23:28:16.501Z,84.60
2019-04-29T23:33:23.007Z,82.97
2019-04-29T23:38:26.955Z,83.22
2019-04-29T23:43:31.289Z,83.24
2019-04-29T23:48:39.611Z,83.46
2019-04-29T23:53:42.513Z,84.29
2019-04-29T23:58:48.495Z,83.70
